Time;durP1;ratioP1;P1;durP2;ratioP2;P2;SDS_P1;SDS_P2;PMS_P1;PMS_P2;Temp;Humidity;BMP_temperature;BMP_pressure;BME280_temperature;BME280_humidity;BME280_pressure;Samples;Min_cycle;Max_cycle;Signal;HPM_P1;HPM_P2
2022/05/16 00:02:22;;;;;;;0.20;0.20;;;10.50;99.90;;;;;;5054758;28;20253;-92
2022/05/16 00:04:51;;;;;;;0.20;0.20;;;10.40;99.90;;;;;;5058492;28;20445;-91
2022/05/16 00:07:19;;;;;;;0.20;0.20;;;10.40;99.90;;;;;;5056185;28;20214;-92
2022/05/16 00:09:45;;;;;;;0.17;0.17;;;10.40;99.90;;;;;;5061151;28;20440;-92
2022/05/16 00:12:12;;;;;;;0.20;0.20;;;10.40;99.90;;;;;;5066371;28;20457;-92
2022/05/16 00:14:40;;;;;;;0.20;0.20;;;10.40;99.90;;;;;;5063636;28;20196;-92
2022/05/16 00:17:06;;;;;;;0.20;0.20;;;10.40;99.90;;;;;;5061340;28;20524;-92
2022/05/16 00:19:31;;;;;;;0.20;0.20;;;10.50;99.90;;;;;;5057025;28;20445;-92
2022/05/16 00:21:58;;;;;;;0.20;0.20;;;10.40;99.90;;;;;;5056021;28;20494;-92
2022/05/16 00:24:26;;;;;;;0.17;0.17;;;10.30;99.90;;;;;;5055943;28;20178;-92
2022/05/16 00:26:56;;;;;;;0.20;0.20;;;10.20;99.90;;;;;;5065411;28;20452;-91
2022/05/16 00:29:22;;;;;;;0.20;0.20;;;10.50;99.90;;;;;;5053091;28;20949;-92
2022/05/16 00:31:48;;;;;;;0.20;0.20;;;10.40;99.90;;;;;;5060591;28;20444;-91
2022/05/16 00:34:15;;;;;;;0.10;0.10;;;10.40;99.90;;;;;;5060564;28;20273;-92
2022/05/16 00:36:43;;;;;;;0.20;0.20;;;10.40;99.90;;;;;;5057973;28;20445;-93
2022/05/16 00:39:08;;;;;;;0.20;0.20;;;10.40;99.90;;;;;;5058875;28;20476;-91
2022/05/16 00:41:34;;;;;;;0.20;0.20;;;10.30;99.90;;;;;;5060289;28;20441;-92
2022/05/16 00:44:00;;;;;;;0.30;0.30;;;10.20;99.90;;;;;;5051326;28;20560;-92
2022/05/16 00:46:29;;;;;;;0.20;0.20;;;10.20;99.90;;;;;;5063747;28;20190;-92
2022/05/16 00:48:55;;;;;;;0.20;0.20;;;10.20;99.90;;;;;;5060953;28;20185;-92
2022/05/16 00:51:47;;;;;;;0.20;0.20;;;10.10;99.90;;;;;;5076257;28;20447;-92
2022/05/16 00:54:19;;;;;;;0.20;0.20;;;10.00;99.90;;;;;;5060766;28;20433;-92
2022/05/16 00:56:47;;;;;;;0.20;0.20;;;10.00;99.90;;;;;;5062705;28;20518;-92
2022/05/16 00:59:12;;;;;;;0.20;0.20;;;10.00;99.90;;;;;;5060085;28;20480;-92
2022/05/16 01:07:09;;;;;;;0.20;0.20;;;9.90;99.90;;;;;;5057679;28;20440;-91
2022/05/16 01:09:35;;;;;;;0.20;0.20;;;9.90;99.90;;;;;;5067093;28;20444;-92
2022/05/16 01:12:01;;;;;;;0.20;0.20;;;9.90;99.90;;;;;;5050525;28;20457;-91
2022/05/16 01:14:38;;;;;;;0.20;0.20;;;9.90;99.90;;;;;;5058416;28;20187;-91
2022/05/16 01:17:04;;;;;;;0.27;0.27;;;9.80;99.90;;;;;;5059685;28;20239;-91
2022/05/16 01:19:30;;;;;;;0.20;0.20;;;9.90;99.90;;;;;;5053526;28;20523;-92
2022/05/16 01:22:05;;;;;;;0.20;0.20;;;9.80;99.90;;;;;;5055169;28;20206;-92
2022/05/16 01:24:31;;;;;;;0.20;0.20;;;9.70;99.90;;;;;;5065071;28;20190;-91
2022/05/16 01:26:56;;;;;;;0.20;0.20;;;9.70;99.90;;;;;;5060684;28;20493;-91
2022/05/16 01:29:22;;;;;;;0.20;0.20;;;9.60;99.90;;;;;;5061302;28;20293;-90
2022/05/16 01:31:47;;;;;;;0.20;0.20;;;9.60;99.90;;;;;;5061118;28;20183;-92
2022/05/16 01:34:13;;;;;;;0.20;0.20;;;9.60;99.90;;;;;;5057784;28;20185;-91
2022/05/16 01:36:39;;;;;;;0.20;0.20;;;9.70;99.90;;;;;;5059774;28;20650;-92
2022/05/16 01:39:05;;;;;;;0.20;0.20;;;9.80;99.90;;;;;;5052924;28;20187;-92
2022/05/16 01:41:31;;;;;;;0.30;0.30;;;9.80;99.90;;;;;;5063519;28;20955;-90
2022/05/16 01:44:00;;;;;;;0.30;0.30;;;9.70;99.90;;;;;;5064999;28;20456;-90
2022/05/16 01:46:32;;;;;;;0.20;0.20;;;9.60;99.90;;;;;;5063254;28;20270;-90
2022/05/16 01:48:57;;;;;;;0.20;0.20;;;9.70;99.90;;;;;;5053420;28;21065;-91
2022/05/16 01:51:23;;;;;;;0.20;0.20;;;9.70;99.90;;;;;;5058027;28;20480;-91
2022/05/16 01:53:49;;;;;;;0.20;0.20;;;9.60;99.90;;;;;;5063286;28;20210;-91
2022/05/16 01:56:15;;;;;;;0.20;0.20;;;9.60;99.90;;;;;;5056598;28;20195;-91
2022/05/16 01:58:41;;;;;;;0.30;0.30;;;9.60;99.90;;;;;;5051760;28;20805;-91
2022/05/16 02:01:08;;;;;;;0.20;0.20;;;9.50;99.90;;;;;;5057533;28;21182;-91
2022/05/16 02:03:40;;;;;;;0.20;0.20;;;9.50;99.90;;;;;;5066089;28;20574;-88
2022/05/16 02:06:06;;;;;;;0.30;0.30;;;9.40;99.90;;;;;;5055945;28;20447;-89
2022/05/16 02:08:32;;;;;;;0.20;0.20;;;9.40;99.90;;;;;;5050643;28;20437;-86
2022/05/16 02:10:59;;;;;;;0.20;0.20;;;9.50;99.90;;;;;;5056330;28;20185;-89
2022/05/16 02:13:24;;;;;;;0.20;0.20;;;9.50;99.90;;;;;;5049565;28;20183;-87
2022/05/16 02:15:50;;;;;;;0.20;0.20;;;9.50;99.90;;;;;;5052586;28;20464;-86
2022/05/16 02:18:15;;;;;;;0.20;0.20;;;9.40;99.90;;;;;;5050025;28;20178;-88
2022/05/16 02:20:41;;;;;;;0.20;0.20;;;9.40;99.90;;;;;;5056836;28;20711;-87
2022/05/16 02:25:53;;;;;;;0.20;0.20;;;9.40;99.90;;;;;;5055079;28;20459;-90
2022/05/16 02:28:19;;;;;;;0.20;0.20;;;9.40;99.90;;;;;;5060523;28;20452;-87
2022/05/16 02:30:46;;;;;;;0.20;0.20;;;9.30;99.90;;;;;;5052425;28;20436;-89
2022/05/16 02:33:14;;;;;;;0.20;0.20;;;9.40;99.90;;;;;;5057960;28;20446;-86
2022/05/16 02:35:40;;;;;;;0.20;0.20;;;9.40;99.90;;;;;;5066370;28;21008;-87
2022/05/16 02:38:07;;;;;;;0.20;0.20;;;9.40;99.90;;;;;;5056094;28;20536;-88
2022/05/16 02:40:34;;;;;;;0.20;0.20;;;9.40;99.90;;;;;;5056473;28;20482;-91
2022/05/16 02:43:00;;;;;;;0.20;0.20;;;9.50;99.90;;;;;;5069243;28;20478;-86
2022/05/16 02:45:28;;;;;;;0.20;0.20;;;9.40;99.90;;;;;;5070099;28;20445;-88
2022/05/16 02:47:53;;;;;;;0.20;0.20;;;9.50;99.90;;;;;;5060072;28;20493;-86
2022/05/16 02:50:23;;;;;;;0.20;0.20;;;9.50;99.90;;;;;;5063035;28;20476;-88
2022/05/16 02:52:49;;;;;;;0.20;0.20;;;9.60;99.90;;;;;;5065228;28;20190;-87
2022/05/16 02:55:14;;;;;;;0.20;0.20;;;9.50;99.90;;;;;;5060060;28;20446;-90
2022/05/16 02:57:40;;;;;;;0.20;0.20;;;9.70;99.90;;;;;;5058469;28;20559;-88
2022/05/16 03:00:08;;;;;;;0.20;0.20;;;9.60;99.90;;;;;;5064116;28;20207;-90
2022/05/16 03:02:35;;;;;;;0.20;0.20;;;9.80;99.90;;;;;;5065422;28;20622;-90
2022/05/16 03:05:00;;;;;;;0.20;0.20;;;9.80;99.90;;;;;;5070753;28;20436;-90
2022/05/16 03:07:26;;;;;;;0.20;0.20;;;9.70;99.90;;;;;;5054377;28;20472;-89
2022/05/16 03:09:51;;;;;;;0.20;0.20;;;9.80;99.90;;;;;;5065253;28;20186;-90
2022/05/16 03:12:17;;;;;;;0.20;0.20;;;9.90;99.90;;;;;;5060882;28;20179;-90
2022/05/16 03:14:42;;;;;;;0.20;0.20;;;9.90;99.90;;;;;;5053503;28;20216;-90
2022/05/16 03:17:08;;;;;;;0.20;0.20;;;9.90;99.90;;;;;;5067634;28;20186;-89
2022/05/16 03:19:35;;;;;;;0.30;0.30;;;9.80;99.90;;;;;;5080203;28;20201;-90
2022/05/16 03:22:05;;;;;;;0.20;0.20;;;10.00;99.90;;;;;;5053937;28;20329;-89
2022/05/16 03:24:31;;;;;;;0.20;0.20;;;10.00;99.90;;;;;;5051961;28;20456;-90
2022/05/16 03:26:57;;;;;;;0.20;0.20;;;9.90;99.90;;;;;;5056842;28;20925;-89
2022/05/16 03:29:23;;;;;;;0.20;0.20;;;10.00;99.90;;;;;;5065034;28;20455;-90
2022/05/16 03:31:48;;;;;;;0.20;0.20;;;10.00;99.90;;;;;;5063111;28;20463;-89
2022/05/16 03:34:14;;;;;;;0.20;0.20;;;9.90;99.90;;;;;;5061159;28;20217;-90
2022/05/16 03:36:39;;;;;;;0.10;0.10;;;9.90;99.90;;;;;;5058593;28;21807;-90
2022/05/16 03:41:51;;;;;;;0.20;0.20;;;9.90;99.90;;;;;;5057984;28;20277;-90
2022/05/16 03:44:17;;;;;;;0.20;0.20;;;10.00;99.90;;;;;;5068100;28;20522;-89
2022/05/16 03:46:42;;;;;;;0.17;0.17;;;10.00;99.90;;;;;;5058673;28;20459;-88
2022/05/16 03:49:09;;;;;;;0.20;0.20;;;10.00;99.90;;;;;;5064425;28;20443;-88
2022/05/16 03:51:35;;;;;;;0.20;0.20;;;10.10;99.90;;;;;;5053867;28;20657;-89
2022/05/16 03:54:01;;;;;;;0.20;0.20;;;10.20;99.90;;;;;;5051875;28;20478;-90
2022/05/16 03:56:28;;;;;;;0.20;0.20;;;10.40;99.90;;;;;;5054100;28;21007;-89
2022/05/16 03:58:55;;;;;;;0.20;0.20;;;10.40;99.90;;;;;;5064346;28;20191;-89
2022/05/16 04:01:21;;;;;;;0.20;0.20;;;10.70;99.90;;;;;;5058547;28;20517;-89
2022/05/16 04:03:47;;;;;;;0.20;0.20;;;10.70;99.90;;;;;;5056838;28;20480;-88
2022/05/16 04:06:16;;;;;;;0.20;0.20;;;10.70;99.90;;;;;;5064795;28;20515;-88
2022/05/16 04:08:42;;;;;;;0.20;0.20;;;10.70;99.90;;;;;;5061854;28;20194;-90
2022/05/16 04:11:08;;;;;;;0.20;0.20;;;10.80;99.90;;;;;;5058510;28;20432;-89
2022/05/16 04:13:35;;;;;;;0.20;0.20;;;10.80;99.90;;;;;;5060045;28;20186;-88
2022/05/16 04:16:01;;;;;;;0.10;0.10;;;10.90;99.90;;;;;;5055563;28;20547;-90
2022/05/16 04:18:27;;;;;;;0.20;0.20;;;10.90;99.90;;;;;;5067606;28;20442;-89
2022/05/16 04:20:52;;;;;;;0.20;0.20;;;11.00;99.90;;;;;;5057865;28;20207;-90
2022/05/16 04:23:18;;;;;;;0.10;0.10;;;11.00;99.90;;;;;;5058999;28;20512;-89
2022/05/16 04:25:44;;;;;;;0.10;0.10;;;11.00;99.90;;;;;;5057747;28;20179;-89
2022/05/16 04:28:10;;;;;;;0.20;0.20;;;11.00;99.90;;;;;;5052188;28;20178;-89
2022/05/16 04:30:37;;;;;;;0.20;0.20;;;11.00;99.90;;;;;;5067167;28;20189;-89
2022/05/16 04:33:04;;;;;;;0.20;0.20;;;11.10;99.90;;;;;;5070764;28;20439;-90
2022/05/16 04:35:29;;;;;;;0.20;0.20;;;11.10;99.90;;;;;;5052477;28;20471;-89
2022/05/16 04:37:55;;;;;;;0.40;0.40;;;11.20;99.90;;;;;;5050944;28;20476;-88
2022/05/16 04:40:21;;;;;;;0.30;0.30;;;11.20;99.90;;;;;;5056825;28;20186;-88
2022/05/16 04:42:48;;;;;;;0.20;0.20;;;11.30;99.90;;;;;;5049433;28;20481;-88
2022/05/16 04:45:15;;;;;;;0.30;0.30;;;11.30;99.90;;;;;;5051418;28;20324;-88
2022/05/16 04:47:43;;;;;;;0.30;0.30;;;11.30;99.90;;;;;;5051411;28;20449;-89
2022/05/16 04:50:10;;;;;;;0.30;0.30;;;11.40;99.90;;;;;;5050371;28;20469;-88
2022/05/16 04:52:35;;;;;;;0.13;0.13;;;11.40;99.90;;;;;;5064058;28;20444;-88
2022/05/16 04:55:02;;;;;;;0.10;0.10;;;11.50;99.90;;;;;;5059739;28;20440;-88
2022/05/16 04:57:27;;;;;;;0.13;0.13;;;11.60;99.90;;;;;;5055478;28;20220;-88
2022/05/16 04:59:53;;;;;;;0.20;0.20;;;11.60;99.90;;;;;;5064448;28;20931;-90
2022/05/16 05:02:19;;;;;;;0.17;0.17;;;11.50;99.90;;;;;;5064486;28;20230;-91
2022/05/16 05:04:45;;;;;;;0.10;0.10;;;11.50;99.90;;;;;;5058931;28;20196;-89
2022/05/16 05:07:12;;;;;;;0.20;0.20;;;11.50;99.90;;;;;;5052373;28;20483;-91
2022/05/16 05:15:09;;;;;;;0.20;0.20;;;11.60;99.90;;;;;;5052560;28;20448;-89
2022/05/16 05:17:35;;;;;;;0.30;0.30;;;11.70;99.90;;;;;;5059708;28;20497;-90
2022/05/16 05:20:02;;;;;;;0.20;0.20;;;11.70;99.90;;;;;;5054375;28;20452;-95
2022/05/16 05:22:28;;;;;;;0.20;0.20;;;11.80;99.90;;;;;;5062662;28;20213;-92
2022/05/16 05:24:54;;;;;;;0.10;0.10;;;11.90;99.90;;;;;;5059900;28;20453;-91
2022/05/16 05:27:19;;;;;;;0.20;0.20;;;12.00;99.90;;;;;;5051656;28;20559;-92
2022/05/16 05:29:47;;;;;;;0.20;0.20;;;12.30;99.90;;;;;;5063741;28;20190;-95
2022/05/16 05:32:13;;;;;;;0.10;0.10;;;12.50;99.90;;;;;;5059942;28;20197;-92
2022/05/16 05:34:39;;;;;;;0.10;0.10;;;12.70;99.90;;;;;;5059270;28;20440;-92
2022/05/16 05:37:05;;;;;;;0.20;0.20;;;12.80;99.90;;;;;;5052416;28;20183;-87
2022/05/16 05:39:31;;;;;;;0.20;0.20;;;13.00;99.90;;;;;;5068391;28;20916;-94
2022/05/16 05:41:57;;;;;;;0.10;0.10;;;13.10;99.90;;;;;;5052846;28;20186;-91
2022/05/16 05:44:24;;;;;;;0.10;0.10;;;13.20;99.90;;;;;;5066607;28;20813;-89
2022/05/16 05:46:49;;;;;;;0.20;0.20;;;13.30;99.90;;;;;;5058889;28;20971;-89
2022/05/16 05:49:15;;;;;;;0.10;0.10;;;13.30;99.90;;;;;;5060297;28;20452;-89
2022/05/16 05:51:41;;;;;;;0.10;0.10;;;13.30;99.90;;;;;;5052590;28;20185;-89
2022/05/16 05:54:07;;;;;;;0.10;0.10;;;13.30;99.90;;;;;;5052744;28;20190;-89
2022/05/16 05:56:33;;;;;;;0.10;0.10;;;13.20;99.90;;;;;;5055411;28;20244;-89
2022/05/16 05:58:59;;;;;;;0.20;0.20;;;13.30;99.90;;;;;;5063994;28;20459;-87
2022/05/16 06:01:26;;;;;;;0.10;0.10;;;13.20;99.90;;;;;;5069550;28;20884;-93
2022/05/16 06:03:52;;;;;;;0.20;0.20;;;13.20;99.90;;;;;;5066597;28;20484;-87
2022/05/16 06:06:17;;;;;;;0.20;0.20;;;13.20;99.90;;;;;;5068186;28;20451;-88
2022/05/16 06:08:43;;;;;;;0.20;0.20;;;13.20;99.90;;;;;;5060017;28;20190;-88
2022/05/16 06:11:09;;;;;;;0.10;0.10;;;13.10;99.90;;;;;;5056095;28;20552;-91
2022/05/16 06:13:34;;;;;;;0.10;0.10;;;13.10;99.90;;;;;;5068321;28;20190;-88
2022/05/16 06:16:00;;;;;;;0.20;0.20;;;13.20;99.90;;;;;;5067219;28;20758;-88
2022/05/16 06:18:26;;;;;;;0.20;0.20;;;13.40;99.90;;;;;;5056142;28;20317;-90
2022/05/16 06:20:51;;;;;;;0.20;0.20;;;13.50;99.90;;;;;;5060281;28;20237;-90
2022/05/16 06:23:17;;;;;;;0.30;0.30;;;13.80;99.90;;;;;;5057528;28;20267;-88
2022/05/16 06:25:44;;;;;;;0.20;0.20;;;13.90;99.90;;;;;;5074266;28;20186;-90
2022/05/16 06:28:16;;;;;;;0.20;0.20;;;14.00;99.90;;;;;;5061992;28;20190;-88
2022/05/16 06:30:44;;;;;;;0.20;0.20;;;14.20;99.90;;;;;;5054324;28;20451;-84
2022/05/16 06:33:12;;;;;;;0.20;0.20;;;14.30;99.90;;;;;;5060101;28;20435;-89
2022/05/16 06:35:38;;;;;;;0.10;0.10;;;14.40;99.90;;;;;;5049396;28;20825;-87
2022/05/16 06:38:12;;;;;;;0.10;0.10;;;14.40;99.90;;;;;;5056209;28;20445;-88
2022/05/16 06:40:39;;;;;;;0.10;0.10;;;14.50;99.90;;;;;;5054343;28;20455;-92
2022/05/16 06:43:05;;;;;;;0.10;0.10;;;14.60;99.90;;;;;;5060916;28;20490;-86
2022/05/16 06:45:31;;;;;;;0.10;0.10;;;14.80;99.90;;;;;;5069214;28;20524;-95
2022/05/16 06:47:57;;;;;;;0.10;0.10;;;14.90;99.90;;;;;;5079579;28;20186;-96
2022/05/16 06:50:22;;;;;;;0.10;0.10;;;15.00;99.90;;;;;;5059173;28;20221;-87
2022/05/16 06:52:48;;;;;;;0.10;0.10;;;15.30;99.90;;;;;;5061625;28;20819;-84
2022/05/16 06:55:14;;;;;;;0.10;0.10;;;15.50;99.90;;;;;;5059019;28;20463;-80
2022/05/16 06:57:40;;;;;;;0.10;0.10;;;15.70;99.90;;;;;;5060186;28;20576;-88
2022/05/16 07:00:07;;;;;;;0.10;0.10;;;15.90;99.90;;;;;;5061140;28;20303;-86
2022/05/16 07:02:33;;;;;;;0.10;0.10;;;15.90;99.90;;;;;;5061606;28;20241;-82
2022/05/16 07:04:59;;;;;;;0.20;0.20;;;15.60;99.90;;;;;;5066070;28;20458;-86
2022/05/16 07:07:25;;;;;;;0.10;0.10;;;15.30;99.90;;;;;;5056572;28;20437;-85
2022/05/16 07:09:51;;;;;;;0.20;0.20;;;15.30;99.90;;;;;;5050075;28;21100;-86
2022/05/16 07:12:17;;;;;;;0.10;0.10;;;15.30;99.90;;;;;;5056118;28;20186;-87
2022/05/16 07:14:42;;;;;;;0.10;0.10;;;15.20;99.90;;;;;;5053597;28;20555;-87
2022/05/16 07:17:08;;;;;;;0.10;0.10;;;15.10;99.90;;;;;;5064016;28;20190;-87
2022/05/16 07:19:35;;;;;;;0.10;0.10;;;15.30;99.90;;;;;;5059236;28;20187;-86
2022/05/16 07:22:13;;;;;;;0.10;0.10;;;15.30;99.90;;;;;;5075128;28;20215;-87
2022/05/16 07:24:43;;;;;;;0.10;0.10;;;15.50;99.90;;;;;;5064108;28;20541;-91
2022/05/16 07:29:53;;;;;;;0.10;0.10;;;15.50;99.90;;;;;;5054949;28;20955;-85
2022/05/16 07:32:18;;;;;;;0.30;0.30;;;15.60;99.90;;;;;;5052899;28;20441;-88
2022/05/16 07:34:44;;;;;;;0.20;0.20;;;15.50;99.90;;;;;;5052671;28;20178;-94
2022/05/16 07:37:10;;;;;;;0.20;0.20;;;15.70;99.90;;;;;;5059549;28;20541;-88
2022/05/16 07:39:36;;;;;;;0.37;0.37;;;15.60;99.90;;;;;;5052126;28;20522;-87
2022/05/16 07:42:06;;;;;;;0.40;0.40;;;15.60;99.90;;;;;;5052953;28;22132;-85
2022/05/16 07:44:33;;;;;;;0.20;0.20;;;15.80;99.90;;;;;;5051390;28;20459;-85
2022/05/16 07:46:59;;;;;;;0.20;0.20;;;16.00;99.90;;;;;;5055319;28;20459;-88
2022/05/16 07:49:25;;;;;;;0.20;0.20;;;16.30;99.90;;;;;;5049300;28;20960;-86
2022/05/16 07:51:50;;;;;;;0.20;0.20;;;16.60;99.90;;;;;;5049172;28;20455;-87
2022/05/16 07:54:16;;;;;;;0.10;0.10;;;16.80;99.90;;;;;;5053473;28;20197;-84
2022/05/16 07:56:41;;;;;;;0.10;0.10;;;17.00;99.90;;;;;;5054816;28;20187;-90
2022/05/16 07:59:09;;;;;;;0.10;0.10;;;17.00;99.90;;;;;;5053461;28;20862;-88
2022/05/16 08:01:35;;;;;;;0.60;0.60;;;17.10;99.90;;;;;;5064343;28;20217;-80
2022/05/16 08:04:01;;;;;;;0.13;0.13;;;17.10;99.90;;;;;;5055090;28;21337;-82
2022/05/16 08:06:27;;;;;;;0.10;0.10;;;17.20;99.90;;;;;;5055691;28;20454;-83
2022/05/16 08:11:38;;;;;;;0.10;0.10;;;17.50;99.90;;;;;;5050993;28;20209;-85
2022/05/16 08:14:04;;;;;;;0.20;0.20;;;17.70;99.90;;;;;;5049122;28;20975;-89
2022/05/16 08:16:30;;;;;;;0.10;0.10;;;17.70;99.90;;;;;;5047240;28;20475;-87
2022/05/16 08:18:55;;;;;;;0.10;0.10;;;18.00;99.90;;;;;;5051805;28;20240;-87
2022/05/16 08:41:20;;;;;;;0.10;0.10;;;18.80;99.90;;;;;;5057695;28;20593;-88
2022/05/16 08:44:03;;;;;;;0.10;0.10;;;18.70;99.90;;;;;;5049600;28;20441;-86
2022/05/16 08:46:36;;;;;;;0.10;0.00;;;18.70;99.90;;;;;;5053811;28;20433;-87
2022/05/16 08:49:24;;;;;;;0.10;0.00;;;19.20;99.90;;;;;;5074491;28;20447;-84
2022/05/16 08:52:08;;;;;;;0.10;0.00;;;19.20;99.90;;;;;;5063186;28;20445;-83
2022/05/16 08:54:45;;;;;;;0.10;0.10;;;19.10;99.90;;;;;;5054809;28;20963;-82
2022/05/16 08:57:14;;;;;;;0.10;0.10;;;19.00;99.90;;;;;;5056750;28;20449;-83
2022/05/16 08:59:44;;;;;;;0.10;0.10;;;19.00;99.90;;;;;;5048231;28;20488;-84
2022/05/16 09:02:20;;;;;;;0.10;0.10;;;19.10;99.90;;;;;;5071664;28;20515;-81
2022/05/16 09:05:14;;;;;;;0.10;0.00;;;19.00;99.90;;;;;;5074923;28;21203;-85
2022/05/16 09:07:47;;;;;;;0.10;0.00;;;18.90;99.90;;;;;;5061272;28;20473;-83
2022/05/16 09:10:17;;;;;;;0.10;0.00;;;18.90;99.90;;;;;;5063383;28;20440;-84
2022/05/16 09:12:55;;;;;;;0.10;0.00;;;18.90;99.90;;;;;;5073250;28;20445;-83
2022/05/16 09:15:38;;;;;;;0.10;0.00;;;18.80;99.90;;;;;;5066035;28;20449;-84
2022/05/16 09:18:10;;;;;;;0.10;0.00;;;19.00;99.90;;;;;;5063708;28;20424;-85
2022/05/16 09:21:08;;;;;;;0.10;0.00;;;19.10;99.90;;;;;;5057000;28;20480;-85
2022/05/16 09:23:45;;;;;;;0.10;0.10;;;19.00;99.90;;;;;;5045116;28;20469;-85
2022/05/16 09:26:17;;;;;;;0.10;0.00;;;18.80;99.90;;;;;;5061553;28;20440;-84
2022/05/16 09:29:12;;;;;;;0.10;0.00;;;19.20;99.90;;;;;;5064770;28;20443;-83
2022/05/16 09:31:43;;;;;;;0.10;0.10;;;18.90;99.90;;;;;;5051050;28;21138;-85
2022/05/16 09:34:10;;;;;;;0.10;0.10;;;18.90;99.90;;;;;;5060458;28;21025;-86
2022/05/16 09:36:43;;;;;;;0.10;0.00;;;19.20;99.90;;;;;;5079741;28;20970;-84
2022/05/16 09:39:10;;;;;;;0.10;0.10;;;19.10;99.90;;;;;;5051217;28;20439;-82
2022/05/16 09:41:42;;;;;;;0.10;0.00;;;18.90;99.90;;;;;;5065716;28;20491;-82
2022/05/16 09:44:30;;;;;;;0.10;0.10;;;19.00;99.90;;;;;;5056631;28;20947;-83
2022/05/16 09:47:14;;;;;;;0.10;0.00;;;19.10;99.90;;;;;;5057087;28;20436;-84
2022/05/16 09:49:41;;;;;;;0.10;0.00;;;19.20;99.90;;;;;;5066127;28;20524;-84
2022/05/16 09:52:13;;;;;;;0.10;0.10;;;19.20;99.90;;;;;;5049374;28;20446;-85
2022/05/16 09:54:39;;;;;;;0.10;0.10;;;19.30;99.90;;;;;;5042566;28;20933;-84
2022/05/16 09:57:22;;;;;;;0.10;0.10;;;19.40;99.90;;;;;;5048627;28;20441;-84
2022/05/16 09:59:52;;;;;;;0.10;0.00;;;19.20;99.90;;;;;;5045042;28;20219;-82
2022/05/16 10:02:31;;;;;;;0.10;0.10;;;19.30;99.90;;;;;;5046282;28;20445;-84
2022/05/16 10:04:59;;;;;;;0.00;0.00;;;19.40;99.90;;;;;;5045685;28;20948;-85
2022/05/16 10:07:38;;;;;;;0.10;0.10;;;19.60;99.90;;;;;;5044391;28;20436;-83
2022/05/16 10:10:04;;;;;;;0.10;0.10;;;19.70;99.90;;;;;;5061858;28;20529;-85
2022/05/16 10:12:30;;;;;;;0.10;0.00;;;20.00;99.90;;;;;;5050924;28;20460;-84
2022/05/16 10:14:55;;;;;;;0.10;0.00;;;19.90;99.90;;;;;;5047432;28;20846;-85
2022/05/16 10:17:29;;;;;;;0.10;0.10;;;20.20;99.90;;;;;;5053479;28;20218;-84
2022/05/16 10:20:03;;;;;;;0.10;0.00;;;20.50;99.90;;;;;;5044374;28;20245;-85
2022/05/16 10:22:31;;;;;;;0.10;0.00;;;20.70;99.90;;;;;;5037832;28;20536;-83
2022/05/16 10:24:57;;;;;;;0.00;0.00;;;20.30;99.90;;;;;;5044193;28;20476;-83
2022/05/16 10:27:31;;;;;;;0.10;0.00;;;20.70;99.90;;;;;;5041752;28;20445;-83
2022/05/16 10:29:59;;;;;;;0.00;0.00;;;21.00;99.90;;;;;;5050437;28;20440;-85
2022/05/16 10:35:28;;;;;;;0.10;0.00;;;21.40;99.90;;;;;;5039299;28;20499;-84
2022/05/16 10:37:58;;;;;;;0.10;0.00;;;21.80;99.90;;;;;;5034568;28;20437;-85
2022/05/16 10:40:40;;;;;;;0.10;0.00;;;22.50;99.90;;;;;;5038782;28;20485;-83
2022/05/16 10:43:43;;;;;;;0.00;0.00;;;22.80;99.90;;;;;;5036393;28;20528;-83
2022/05/16 10:46:15;;;;;;;0.10;0.00;;;22.80;99.90;;;;;;5058050;28;20445;-83
2022/05/16 10:48:58;;;;;;;0.10;0.00;;;22.50;99.90;;;;;;5037935;28;21095;-83
2022/05/16 10:51:39;;;;;;;0.10;0.00;;;23.00;99.90;;;;;;5041382;28;20775;-82
2022/05/16 10:54:12;;;;;;;0.10;0.00;;;22.90;99.90;;;;;;5033109;28;20456;-82
2022/05/16 10:57:35;;;;;;;0.10;0.00;;;22.90;99.90;;;;;;5046087;28;21016;-83
2022/05/16 11:00:14;;;;;;;0.10;0.00;;;23.40;99.90;;;;;;5023933;28;21061;-84
2022/05/16 11:03:08;;;;;;;0.10;0.00;;;23.30;99.90;;;;;;5020500;28;20441;-85
2022/05/16 11:05:42;;;;;;;0.00;0.00;;;23.00;99.90;;;;;;5031286;28;20445;-83
2022/05/16 11:08:32;;;;;;;0.00;0.00;;;23.40;99.90;;;;;;5038387;28;20429;-84
2022/05/16 11:11:41;;;;;;;0.00;0.00;;;23.70;99.90;;;;;;5039758;28;20803;-83
2022/05/16 11:14:21;;;;;;;0.00;0.00;;;24.00;99.90;;;;;;5042302;28;20445;-81
2022/05/16 11:16:50;;;;;;;0.00;0.00;;;23.70;99.90;;;;;;5037332;28;20791;-84
2022/05/16 11:19:34;;;;;;;0.00;0.00;;;24.40;99.90;;;;;;5054217;28;20489;-84
2022/05/16 11:22:41;;;;;;;0.00;0.00;;;23.80;99.90;;;;;;5034675;28;20885;-82
2022/05/16 11:25:07;;;;;;;0.00;0.00;;;24.00;99.90;;;;;;5004063;28;20449;-84
2022/05/16 11:28:00;;;;;;;0.00;0.00;;;23.80;99.90;;;;;;5036078;28;20449;-87
2022/05/16 11:30:36;;;;;;;0.00;0.00;;;24.10;99.90;;;;;;5037912;28;20630;-85
2022/05/16 11:33:11;;;;;;;0.00;0.00;;;23.70;99.90;;;;;;5037612;28;20444;-85
2022/05/16 11:35:47;;;;;;;0.00;0.00;;;24.10;99.90;;;;;;5042882;28;20456;-85
2022/05/16 11:38:53;;;;;;;0.00;0.00;;;24.00;99.90;;;;;;5043721;28;20436;-85
2022/05/16 11:41:47;;;;;;;0.00;0.00;;;24.60;99.90;;;;;;5029226;28;20564;-86
2022/05/16 11:44:36;;;;;;;0.00;0.00;;;24.40;99.90;;;;;;5037706;28;20438;-83
2022/05/16 11:47:19;;;;;;;0.00;0.00;;;24.50;99.90;;;;;;5043590;28;20444;-86
2022/05/16 11:50:24;;;;;;;0.00;0.00;;;24.60;99.90;;;;;;5038863;28;20443;-84
2022/05/16 11:53:17;;;;;;;0.00;0.00;;;24.80;99.90;;;;;;5023147;28;20433;-84
2022/05/16 12:01:35;;;;;;;0.00;0.00;;;25.50;99.90;;;;;;5033632;28;20577;-85
2022/05/16 12:04:13;;;;;;;0.00;0.00;;;25.30;99.90;;;;;;5047136;28;20487;-90
2022/05/16 12:06:43;;;;;;;0.00;0.00;;;25.10;99.90;;;;;;5038399;28;20425;-86
2022/05/16 12:09:17;;;;;;;0.00;0.00;;;25.40;99.90;;;;;;5033640;28;20461;-85
2022/05/16 12:12:01;;;;;;;0.00;0.00;;;25.60;99.90;;;;;;5028043;28;20481;-84
2022/05/16 12:14:32;;;;;;;0.00;0.00;;;25.90;99.90;;;;;;5027641;28;20468;-81
2022/05/16 12:17:18;;;;;;;0.00;0.00;;;26.20;99.90;;;;;;5023169;28;20442;-83
2022/05/16 12:19:53;;;;;;;0.00;0.00;;;26.00;99.90;;;;;;5027822;28;20472;-84
2022/05/16 12:22:44;;;;;;;0.00;0.00;;;25.60;99.90;;;;;;5027533;28;20440;-83
2022/05/16 12:25:17;;;;;;;0.00;0.00;;;25.80;99.90;;;;;;5031078;28;21031;-83
2022/05/16 12:27:45;;;;;;;0.00;0.00;;;25.90;99.90;;;;;;5030308;28;20450;-84
2022/05/16 12:30:12;;;;;;;0.00;0.00;;;26.20;99.90;;;;;;5041383;28;20949;-83
2022/05/16 12:32:38;;;;;;;0.00;0.00;;;25.70;99.90;;;;;;5049746;28;20992;-84
2022/05/16 12:35:24;;;;;;;0.00;0.00;;;25.30;99.90;;;;;;5047135;28;20534;-84
2022/05/16 12:37:50;;;;;;;0.00;0.00;;;25.30;99.90;;;;;;5065642;28;20182;-82
2022/05/16 12:40:25;;;;;;;0.00;0.00;;;25.70;99.90;;;;;;5058799;28;20496;-82
2022/05/16 12:43:15;;;;;;;0.00;0.00;;;25.60;99.90;;;;;;5034186;28;20187;-82
2022/05/16 12:46:32;;;;;;;0.00;0.00;;;25.50;99.90;;;;;;5039906;28;20888;-84
2022/05/16 12:49:34;;;;;;;0.00;0.00;;;25.70;99.90;;;;;;5022848;28;20441;-84
2022/05/16 12:52:22;;;;;;;0.00;0.00;;;25.20;99.90;;;;;;5042740;28;20510;-85
2022/05/16 12:55:10;;;;;;;0.00;0.00;;;24.70;99.90;;;;;;5042968;28;20429;-83
2022/05/16 12:57:43;;;;;;;0.00;0.00;;;24.60;99.90;;;;;;5045864;28;20867;-84
2022/05/16 13:00:16;;;;;;;0.00;0.00;;;24.50;99.90;;;;;;5027918;28;20486;-84
2022/05/16 13:03:22;;;;;;;0.00;0.00;;;24.20;99.90;;;;;;5032756;28;20454;-84
2022/05/16 13:06:19;;;;;;;0.00;0.00;;;23.70;99.90;;;;;;5063162;28;20526;-83
2022/05/16 13:08:50;;;;;;;0.00;0.00;;;24.20;99.90;;;;;;5059989;28;20420;-85
2022/05/16 13:11:34;;;;;;;0.00;0.00;;;24.10;99.90;;;;;;5069921;28;20988;-84
2022/05/16 13:14:16;;;;;;;0.00;0.00;;;24.10;99.90;;;;;;5046388;28;20490;-84
2022/05/16 13:16:57;;;;;;;0.00;0.00;;;23.50;99.90;;;;;;5052323;28;20969;-84
2022/05/16 13:19:31;;;;;;;0.00;0.00;;;23.30;99.90;;;;;;5032743;28;20482;-84
2022/05/16 13:22:06;;;;;;;0.00;0.00;;;23.60;99.90;;;;;;5031033;28;20477;-83
2022/05/16 13:24:33;;;;;;;0.00;0.00;;;23.50;99.90;;;;;;5031183;28;20450;-83
2022/05/16 13:29:47;;;;;;;0.00;0.00;;;23.50;99.90;;;;;;5033508;28;20476;-83
2022/05/16 13:32:15;;;;;;;0.00;0.00;;;23.70;99.90;;;;;;5032758;28;20536;-83
2022/05/16 13:34:49;;;;;;;0.00;0.00;;;23.70;99.90;;;;;;5031818;28;20832;-82
2022/05/16 13:37:24;;;;;;;0.00;0.00;;;23.20;99.90;;;;;;5033051;28;20531;-82
2022/05/16 13:39:55;;;;;;;0.00;0.00;;;23.20;99.90;;;;;;5033083;28;20818;-81
2022/05/16 13:42:21;;;;;;;0.00;0.00;;;22.90;99.90;;;;;;5051607;28;20480;-82
2022/05/16 13:44:48;;;;;;;0.00;0.00;;;22.80;99.90;;;;;;5056531;28;20440;-81
2022/05/16 13:47:21;;;;;;;0.00;0.00;;;22.90;99.90;;;;;;5040281;28;20912;-83
2022/05/16 13:49:47;;;;;;;0.00;0.00;;;22.50;99.90;;;;;;5040821;28;20462;-84
2022/05/16 13:52:17;;;;;;;0.00;0.00;;;22.60;99.90;;;;;;5052739;28;20857;-83
2022/05/16 13:54:43;;;;;;;0.00;0.00;;;22.70;99.90;;;;;;5039083;28;20536;-82
2022/05/16 13:57:12;;;;;;;0.00;0.00;;;22.70;99.90;;;;;;5058060;28;20452;-82
2022/05/16 13:59:38;;;;;;;0.00;0.00;;;22.20;99.90;;;;;;5061084;28;20210;-83
2022/05/16 14:02:09;;;;;;;0.00;0.00;;;22.30;99.90;;;;;;5055813;28;20816;-82